createdAt,value
2023-01-30T00:01:15.143Z,99430.63
2023-01-30T00:03:42.618Z,99427.84
2023-01-30T00:06:11.119Z,99427.84
2023-01-30T00:08:38.708Z,99434.63
2023-01-30T00:11:10.082Z,99427.66
2023-01-30T00:13:39.172Z,99426.22
2023-01-30T00:16:07.429Z,99422.16
2023-01-30T00:18:34.883Z,99426.38
2023-01-30T00:21:05.362Z,99423.53
2023-01-30T00:23:35.260Z,99425.91
2023-01-30T00:26:04.617Z,99430.97
2023-01-30T00:28:32.423Z,99424.16
2023-01-30T00:31:00.131Z,99425.72
2023-01-30T00:33:27.932Z,99430.13
2023-01-30T00:35:57.459Z,99429.94
2023-01-30T00:38:25.650Z,99426.53
2023-01-30T00:40:53.017Z,99414.00
2023-01-30T00:43:39.832Z,99411.22
2023-01-30T00:46:44.961Z,99411.22
2023-01-30T00:49:12.705Z,99407.72
2023-01-30T00:51:40.150Z,99416.06
2023-01-30T00:54:07.719Z,99410.09
2023-01-30T00:56:35.101Z,99401.84
2023-01-30T00:59:02.575Z,99407.25
2023-01-30T01:01:29.985Z,99404.25
2023-01-30T01:03:57.451Z,99406.06
2023-01-30T01:06:24.941Z,99406.44
2023-01-30T01:08:52.453Z,99402.50
2023-01-30T01:11:25.874Z,99394.81
2023-01-30T01:13:59.933Z,99397.09
2023-01-30T01:16:30.786Z,99393.16
2023-01-30T01:18:59.686Z,99395.00
2023-01-30T01:21:27.625Z,99394.25
2023-01-30T01:23:59.644Z,99393.53
2023-01-30T01:26:27.405Z,99379.34
2023-01-30T01:28:56.895Z,99382.28
2023-01-30T01:31:25.667Z,99372.47
2023-01-30T01:33:53.190Z,99372.66
2023-01-30T01:36:49.670Z,99368.34
2023-01-30T01:39:10.044Z,99372.47
2023-01-30T01:41:37.424Z,99369.34
2023-01-30T01:44:10.147Z,99377.53
2023-01-30T01:46:48.591Z,99375.91
2023-01-30T01:49:29.008Z,99382.69
2023-01-30T01:52:07.840Z,99368.09
2023-01-30T01:54:47.298Z,99362.13
2023-01-30T01:57:36.325Z,99365.41
2023-01-30T02:00:15.364Z,99366.16
2023-01-30T02:02:49.497Z,99377.44
2023-01-30T02:05:20.602Z,99369.56
2023-01-30T02:07:59.446Z,99372.22
2023-01-30T02:10:48.783Z,99360.38
2023-01-30T02:13:17.082Z,99350.75
2023-01-30T02:15:45.210Z,99349.66
2023-01-30T02:18:14.889Z,99355.63
2023-01-30T02:21:09.700Z,99346.22
2023-01-30T02:24:21.509Z,99343.38
2023-01-30T02:27:14.458Z,99335.59
2023-01-30T02:30:29.811Z,99325.50
2023-01-30T02:33:15.105Z,99329.72
2023-01-30T02:36:12.391Z,99323.03
2023-01-30T02:39:02.405Z,99326.44
2023-01-30T02:41:57.303Z,99321.47
2023-01-30T02:44:45.740Z,99328.91
2023-01-30T02:47:27.464Z,99324.69
2023-01-30T02:50:28.341Z,99312.41
2023-01-30T02:52:57.725Z,99317.66
2023-01-30T02:55:28.820Z,99309.00
2023-01-30T02:57:57.456Z,99309.00
2023-01-30T03:01:05.868Z,99308.63
2023-01-30T03:03:57.613Z,99305.06
2023-01-30T03:07:03.987Z,99309.38
2023-01-30T03:10:00.754Z,99300.84
2023-01-30T03:13:05.492Z,99306.00
2023-01-30T03:16:11.603Z,99297.25
2023-01-30T03:18:44.896Z,99294.56
2023-01-30T03:21:17.252Z,99289.38
2023-01-30T03:23:46.927Z,99286.78
2023-01-30T03:26:22.689Z,99282.56
2023-01-30T03:28:53.018Z,99285.94
2023-01-30T03:31:21.192Z,99292.50
2023-01-30T03:33:49.885Z,99290.03
2023-01-30T03:36:17.993Z,99284.69
2023-01-30T03:38:45.922Z,99292.22
2023-01-30T03:41:13.440Z,99289.72
2023-01-30T03:43:41.045Z,99280.59
2023-01-30T03:46:08.495Z,99284.69
2023-01-30T03:48:36.034Z,99281.19
2023-01-30T03:51:03.519Z,99275.88
2023-01-30T03:53:30.890Z,99275.06
2023-01-30T03:55:59.137Z,99286.97
2023-01-30T03:58:31.343Z,99291.47
2023-01-30T04:01:01.505Z,99283.88
2023-01-30T04:03:29.056Z,99286.63
2023-01-30T04:05:59.599Z,99272.13
2023-01-30T04:08:27.065Z,99271.13
2023-01-30T04:10:54.592Z,99272.66
2023-01-30T04:13:24.087Z,99270.09
2023-01-30T04:15:52.484Z,99266.03
2023-01-30T04:18:45.607Z,99268.72
2023-01-30T04:21:21.094Z,99262.00
2023-01-30T04:23:48.470Z,99260.91
2023-01-30T04:26:16.380Z,99269.63
2023-01-30T04:28:44.599Z,99263.75
2023-01-30T04:31:14.346Z,99248.34
2023-01-30T04:33:53.158Z,99256.31
2023-01-30T04:36:20.640Z,99256.31
2023-01-30T04:38:48.030Z,99240.91
2023-01-30T04:41:18.194Z,99240.06
2023-01-30T04:43:45.817Z,99236.69
2023-01-30T04:46:31.723Z,99236.31
2023-01-30T04:48:59.184Z,99221.44
2023-01-30T04:51:27.056Z,99222.06
2023-01-30T04:53:54.488Z,99216.56
2023-01-30T04:56:21.962Z,99218.28
2023-01-30T04:58:50.811Z,99221.53
2023-01-30T05:01:25.940Z,99225.06
2023-01-30T05:03:54.499Z,99221.25
2023-01-30T05:06:23.144Z,99222.41
2023-01-30T05:08:52.003Z,99226.84
2023-01-30T05:11:20.376Z,99230.47
2023-01-30T05:13:48.028Z,99226.44
2023-01-30T05:16:17.692Z,99235.78
2023-01-30T05:18:45.945Z,99236.63
2023-01-30T05:21:17.459Z,99236.00
2023-01-30T05:23:45.274Z,99233.22
2023-01-30T05:26:16.132Z,99233.31
2023-01-30T05:28:43.772Z,99229.94
2023-01-30T05:31:14.411Z,99220.47
2023-01-30T05:33:41.867Z,99214.34
2023-01-30T05:36:16.200Z,99215.31
2023-01-30T05:38:44.965Z,99218.47
2023-01-30T05:41:14.581Z,99223.19
2023-01-30T05:43:41.949Z,99221.16
2023-01-30T05:46:11.993Z,99217.09
2023-01-30T05:48:39.883Z,99234.34
2023-01-30T05:51:14.781Z,99224.69
2023-01-30T05:53:42.099Z,99225.06
2023-01-30T05:56:09.616Z,99229.00
2023-01-30T05:58:36.945Z,99219.84
2023-01-30T06:01:09.609Z,99218.66
2023-01-30T06:03:37.581Z,99219.53
2023-01-30T06:06:06.408Z,99214.94
2023-01-30T06:08:34.236Z,99207.97
2023-01-30T06:11:09.381Z,99221.66
2023-01-30T06:13:37.470Z,99221.72
2023-01-30T06:16:06.937Z,99220.81
2023-01-30T06:18:35.380Z,99212.09
2023-01-30T06:21:02.779Z,99218.69
2023-01-30T06:23:30.337Z,99220.59
2023-01-30T06:25:57.838Z,99223.72
2023-01-30T06:28:26.627Z,99223.53
2023-01-30T06:30:54.695Z,99220.75
2023-01-30T06:33:22.233Z,99229.19
2023-01-30T06:35:51.560Z,99224.75
2023-01-30T06:38:20.754Z,99220.03
2023-01-30T06:40:50.275Z,99231.94
2023-01-30T06:43:18.507Z,99241.41
2023-01-30T06:45:45.869Z,99230.84
2023-01-30T06:48:13.401Z,99227.97
2023-01-30T06:50:40.735Z,99225.78
2023-01-30T06:53:08.746Z,99220.63
2023-01-30T06:55:36.584Z,99214.50
2023-01-30T06:58:09.942Z,99215.94
2023-01-30T07:00:40.047Z,99218.38
2023-01-30T07:03:16.489Z,99215.53
2023-01-30T07:05:46.082Z,99217.69
2023-01-30T07:08:15.764Z,99214.59
2023-01-30T07:10:44.521Z,99220.69
2023-01-30T07:13:12.709Z,99215.78
2023-01-30T07:15:40.394Z,99213.44
2023-01-30T07:18:08.178Z,99217.09
2023-01-30T07:20:35.622Z,99218.03
2023-01-30T07:23:03.886Z,99213.63
2023-01-30T07:25:31.353Z,99215.16
2023-01-30T07:28:01.552Z,99223.00
2023-01-30T07:30:32.968Z,99221.44
2023-01-30T07:33:01.063Z,99214.63
2023-01-30T07:35:34.725Z,99215.88
2023-01-30T07:38:02.183Z,99216.63
2023-01-30T07:40:29.580Z,99220.34
2023-01-30T07:43:16.143Z,99216.41
2023-01-30T07:45:48.775Z,99212.00
2023-01-30T07:48:19.257Z,99198.06
2023-01-30T07:50:47.319Z,99201.97
2023-01-30T07:53:18.613Z,99200.66
2023-01-30T07:55:46.210Z,99196.88
2023-01-30T07:58:15.967Z,99187.28
2023-01-30T08:00:44.105Z,99188.34
2023-01-30T08:03:17.114Z,99192.06
2023-01-30T08:05:47.059Z,99184.56
2023-01-30T08:08:15.102Z,99182.75
2023-01-30T08:10:43.366Z,99183.81
2023-01-30T08:13:10.776Z,99178.81
2023-01-30T08:15:38.187Z,99182.03
2023-01-30T08:18:07.413Z,99183.31
2023-01-30T08:20:36.359Z,99180.75
2023-01-30T08:23:04.417Z,99179.84
2023-01-30T08:25:31.820Z,99186.63
2023-01-30T08:28:00.435Z,99181.53
2023-01-30T08:30:30.353Z,99175.88
2023-01-30T08:32:58.503Z,99182.97
2023-01-30T08:35:25.968Z,99176.78
2023-01-30T08:37:53.284Z,99185.31
2023-01-30T08:40:20.973Z,99176.19
2023-01-30T08:42:48.537Z,99172.09
2023-01-30T08:45:16.002Z,99168.09
2023-01-30T08:47:43.393Z,99163.75
2023-01-30T08:50:11.291Z,99161.91
2023-01-30T08:52:38.706Z,99161.91
2023-01-30T08:55:06.473Z,99152.69
2023-01-30T08:57:33.847Z,99155.25
2023-01-30T09:00:01.394Z,99155.03
2023-01-30T09:02:28.876Z,99162.47
2023-01-30T09:04:56.150Z,99157.66
2023-01-30T09:07:23.688Z,99148.28
2023-01-30T09:09:51.030Z,99143.91
2023-01-30T09:12:18.455Z,99140.09
2023-01-30T09:14:45.742Z,99143.34
2023-01-30T09:17:13.656Z,99136.25
2023-01-30T09:19:40.938Z,99146.38
2023-01-30T09:22:08.487Z,99142.16
2023-01-30T09:24:36.153Z,99146.72
2023-01-30T09:27:03.511Z,99145.47
2023-01-30T09:29:31.058Z,99136.00
2023-01-30T09:31:58.911Z,99137.41
2023-01-30T09:34:28.766Z,99126.63
2023-01-30T09:37:04.759Z,99117.03
2023-01-30T09:39:32.454Z,99107.19
2023-01-30T09:42:06.128Z,99108.50
2023-01-30T09:45:11.029Z,99087.38
2023-01-30T09:48:10.244Z,99073.06
2023-01-30T09:50:53.805Z,99069.28
2023-01-30T09:53:34.588Z,99074.66
2023-01-30T09:56:02.140Z,99066.75
2023-01-30T09:59:01.767Z,99066.69
2023-01-30T10:02:17.257Z,99052.63
2023-01-30T10:05:00.555Z,99039.59
2023-01-30T10:07:43.471Z,99036.50
2023-01-30T10:10:47.332Z,99039.78
2023-01-30T10:13:48.628Z,99032.63
2023-01-30T10:16:54.751Z,99022.97
2023-01-30T10:19:35.984Z,99010.81
2023-01-30T10:22:43.877Z,98996.47
2023-01-30T10:25:32.751Z,98984.28
2023-01-30T10:28:29.045Z,98957.47
2023-01-30T10:31:07.161Z,98945.91
2023-01-30T10:33:57.879Z,98952.81
2023-01-30T10:36:48.243Z,98953.56
2023-01-30T10:39:28.385Z,98955.75
2023-01-30T10:42:08.438Z,98951.16
2023-01-30T10:44:38.054Z,98935.34
2023-01-30T10:47:47.295Z,98931.28
2023-01-30T10:50:25.980Z,98931.19
2023-01-30T10:53:12.501Z,98937.56
2023-01-30T10:55:50.114Z,98927.69
2023-01-30T10:58:52.113Z,98927.38
2023-01-30T11:01:27.333Z,98924.22
2023-01-30T11:04:04.481Z,98911.41
2023-01-30T11:06:35.227Z,98904.53
2023-01-30T11:09:04.051Z,98896.44
2023-01-30T11:11:55.605Z,98893.03
2023-01-30T11:14:23.123Z,98887.53
2023-01-30T11:16:54.094Z,98877.97
2023-01-30T11:19:32.517Z,98856.06
2023-01-30T11:22:06.527Z,98858.91
2023-01-30T11:24:43.688Z,98871.75
2023-01-30T11:27:25.410Z,98858.97
2023-01-30T11:30:24.592Z,98860.19
2023-01-30T11:33:04.547Z,98856.00
2023-01-30T11:35:34.663Z,98856.13
2023-01-30T11:38:22.317Z,98848.06
2023-01-30T11:40:49.720Z,98842.78
2023-01-30T11:43:17.143Z,98829.63
2023-01-30T11:45:50.451Z,98833.53
2023-01-30T11:48:33.934Z,98827.19
2023-01-30T11:51:11.523Z,98816.94
2023-01-30T11:53:50.997Z,98808.75
2023-01-30T11:56:34.731Z,98804.16
2023-01-30T11:59:22.248Z,98814.00
2023-01-30T12:01:50.138Z,98811.56
2023-01-30T12:04:18.572Z,98805.56
2023-01-30T12:06:45.964Z,98811.38
2023-01-30T12:09:34.688Z,98800.53
2023-01-30T12:12:02.213Z,98804.78
2023-01-30T12:14:49.375Z,98808.69
2023-01-30T12:17:31.840Z,98784.56
2023-01-30T12:20:28.113Z,98789.06
2023-01-30T12:23:15.626Z,98782.53
2023-01-30T12:26:04.353Z,98769.84
2023-01-30T12:28:53.615Z,98761.38
2023-01-30T12:32:14.649Z,98764.78
2023-01-30T12:34:45.570Z,98749.34
2023-01-30T12:38:07.000Z,98733.88
2023-01-30T12:40:48.562Z,98733.22
2023-01-30T12:43:29.265Z,98728.00
2023-01-30T12:46:23.016Z,98711.91
2023-01-30T12:49:24.945Z,98706.66
2023-01-30T12:52:25.326Z,98683.94
2023-01-30T12:55:18.867Z,98686.97
2023-01-30T12:58:20.429Z,98688.59
2023-01-30T13:01:27.947Z,98692.84
2023-01-30T13:04:07.346Z,98668.84
2023-01-30T13:07:04.182Z,98664.78
2023-01-30T13:09:56.290Z,98652.91
2023-01-30T13:12:34.024Z,98649.00
2023-01-30T13:15:26.551Z,98651.03
2023-01-30T13:18:18.474Z,98644.06
2023-01-30T13:21:15.748Z,98646.41
2023-01-30T13:24:22.222Z,98636.00
2023-01-30T13:26:52.160Z,98638.41
2023-01-30T13:29:38.816Z,98636.88
2023-01-30T13:32:30.104Z,98642.25
2023-01-30T13:35:00.079Z,98630.47
2023-01-30T13:37:28.894Z,98630.53
2023-01-30T13:40:01.139Z,98616.63
2023-01-30T13:43:15.185Z,98614.38
2023-01-30T13:45:47.289Z,98608.94
2023-01-30T13:48:48.476Z,98612.66
2023-01-30T13:51:47.123Z,98604.53
2023-01-30T13:55:01.108Z,98598.06
2023-01-30T13:57:33.478Z,98590.47
2023-01-30T14:00:24.814Z,98587.44
2023-01-30T14:03:07.260Z,98584.13
2023-01-30T14:06:00.976Z,98582.88
2023-01-30T14:08:46.832Z,98595.41
2023-01-30T14:11:32.412Z,98584.09
2023-01-30T14:14:18.477Z,98579.88
2023-01-30T14:16:51.014Z,98584.50
2023-01-30T14:19:35.934Z,98582.50
2023-01-30T14:22:19.880Z,98598.81
2023-01-30T14:25:22.431Z,98593.38
2023-01-30T14:27:55.609Z,98591.63
2023-01-30T14:30:31.990Z,98598.81
2023-01-30T14:33:02.211Z,98602.47
2023-01-30T14:35:32.919Z,98601.38
2023-01-30T14:38:20.111Z,98585.72
2023-01-30T14:41:02.241Z,98570.09
2023-01-30T14:43:41.607Z,98556.50
2023-01-30T14:46:17.960Z,98560.16
2023-01-30T14:48:49.985Z,98561.81
2023-01-30T14:51:43.531Z,98569.66
2023-01-30T14:54:14.569Z,98551.44
2023-01-30T14:56:58.676Z,98539.88
2023-01-30T14:59:31.489Z,98542.66
2023-01-30T15:02:14.625Z,98551.47
2023-01-30T15:04:57.482Z,98566.22
2023-01-30T15:07:38.053Z,98587.91
2023-01-30T15:10:44.699Z,98599.03
2023-01-30T15:13:35.948Z,98600.81
2023-01-30T15:16:21.080Z,98601.00
2023-01-30T15:19:49.290Z,98605.63
2023-01-30T15:22:41.063Z,98614.63
2023-01-30T15:25:17.612Z,98621.31
2023-01-30T15:28:14.835Z,98622.28
2023-01-30T15:31:10.973Z,98620.94
2023-01-30T15:33:47.650Z,98610.31
2023-01-30T15:36:27.902Z,98619.69
2023-01-30T15:39:19.909Z,98624.38
2023-01-30T15:41:48.295Z,98612.44
2023-01-30T15:44:43.725Z,98605.66
2023-01-30T15:47:44.541Z,98610.69
2023-01-30T15:50:12.244Z,98618.03
2023-01-30T15:52:46.420Z,98624.81
2023-01-30T15:55:27.841Z,98614.19
2023-01-30T15:58:11.015Z,98614.50
2023-01-30T16:00:46.583Z,98608.19
2023-01-30T16:03:20.342Z,98599.53
2023-01-30T16:05:56.721Z,98597.88
2023-01-30T16:08:33.930Z,98598.13
2023-01-30T16:11:02.023Z,98598.38
2023-01-30T16:13:30.431Z,98580.47
2023-01-30T16:16:10.486Z,98574.50
2023-01-30T16:18:51.348Z,98580.59
2023-01-30T16:21:40.070Z,98584.69
2023-01-30T16:24:26.595Z,98591.22
2023-01-30T16:27:02.680Z,98582.44
2023-01-30T16:29:34.736Z,98582.19
2023-01-30T16:32:02.350Z,98580.31
2023-01-30T16:34:37.239Z,98572.34
2023-01-30T16:37:24.955Z,98572.25
2023-01-30T16:40:23.837Z,98563.56
2023-01-30T16:43:25.709Z,98554.09
2023-01-30T16:45:53.168Z,98555.84
2023-01-30T16:48:22.719Z,98543.13
2023-01-30T16:51:00.221Z,98540.63
2023-01-30T16:53:33.309Z,98552.69
2023-01-30T16:56:09.967Z,98569.13
2023-01-30T16:58:38.607Z,98575.69
2023-01-30T17:01:08.435Z,98571.94
2023-01-30T17:03:41.231Z,98568.25
2023-01-30T17:06:46.258Z,98561.50
2023-01-30T17:09:38.682Z,98564.09
2023-01-30T17:12:36.267Z,98578.47
2023-01-30T17:15:09.808Z,98576.25
2023-01-30T17:17:37.313Z,98580.47
2023-01-30T17:20:05.595Z,98584.66
2023-01-30T17:22:33.859Z,98580.78
2023-01-30T17:25:14.537Z,98577.16
2023-01-30T17:27:41.910Z,98576.78
2023-01-30T17:30:15.792Z,98575.63
2023-01-30T17:32:43.171Z,98571.53
2023-01-30T17:35:12.581Z,98571.81
2023-01-30T17:37:40.103Z,98574.59
2023-01-30T17:40:17.550Z,98573.19
2023-01-30T17:42:46.505Z,98564.44
2023-01-30T17:45:14.181Z,98547.75
2023-01-30T17:47:41.562Z,98542.38
2023-01-30T17:50:13.932Z,98538.75
2023-01-30T17:52:41.885Z,98537.69
2023-01-30T17:55:15.422Z,98531.16
2023-01-30T17:57:48.037Z,98536.19
2023-01-30T18:00:21.360Z,98531.84
2023-01-30T18:02:49.620Z,98530.09
2023-01-30T18:05:17.158Z,98530.81
2023-01-30T18:07:44.767Z,98532.19
2023-01-30T18:10:16.983Z,98534.53
2023-01-30T18:12:45.519Z,98542.38
2023-01-30T18:15:18.192Z,98536.38
2023-01-30T18:17:48.963Z,98537.91
2023-01-30T18:20:20.181Z,98534.28
2023-01-30T18:22:47.770Z,98539.41
2023-01-30T18:25:17.408Z,98540.00
2023-01-30T18:27:47.294Z,98536.50
2023-01-30T18:30:17.705Z,98529.50
2023-01-30T18:32:53.648Z,98510.78
2023-01-30T18:35:23.245Z,98493.50
2023-01-30T18:37:51.144Z,98502.84
2023-01-30T18:40:20.703Z,98499.06
2023-01-30T18:42:48.354Z,98501.28
2023-01-30T18:45:15.893Z,98489.94
2023-01-30T18:47:43.295Z,98495.66
2023-01-30T18:50:11.667Z,98492.03
2023-01-30T18:52:39.010Z,98491.91
2023-01-30T18:55:06.824Z,98482.44
2023-01-30T18:57:34.261Z,98485.81
2023-01-30T19:00:01.661Z,98479.75
2023-01-30T19:02:28.973Z,98487.47
2023-01-30T19:04:56.307Z,98478.50
2023-01-30T19:07:23.675Z,98478.72
2023-01-30T19:09:51.101Z,98479.66
2023-01-30T19:12:36.980Z,98476.81
2023-01-30T19:15:06.032Z,98477.66
2023-01-30T19:17:33.394Z,98481.66
2023-01-30T19:20:02.478Z,98488.78
2023-01-30T19:22:29.815Z,98489.84
2023-01-30T19:24:57.124Z,98491.03
2023-01-30T19:27:25.906Z,98496.41
2023-01-30T19:29:53.291Z,98499.81
2023-01-30T19:32:20.669Z,98502.13
2023-01-30T19:34:49.953Z,98512.53
2023-01-30T19:37:18.102Z,98509.84
2023-01-30T19:39:45.449Z,98519.22
2023-01-30T19:42:12.998Z,98513.13
2023-01-30T19:44:41.072Z,98521.53
2023-01-30T19:47:09.389Z,98519.75
2023-01-30T19:49:37.552Z,98516.38
2023-01-30T19:52:05.338Z,98517.78
2023-01-30T19:54:32.829Z,98514.13
2023-01-30T19:57:00.234Z,98515.66
2023-01-30T19:59:27.905Z,98527.72
2023-01-30T20:01:55.409Z,98548.16
2023-01-30T20:04:22.895Z,98556.56
2023-01-30T20:06:50.260Z,98562.66
2023-01-30T20:09:17.806Z,98570.38
2023-01-30T20:11:45.410Z,98573.66
2023-01-30T20:14:13.532Z,98576.94
2023-01-30T20:16:41.003Z,98578.81
2023-01-30T20:19:15.021Z,98588.25
2023-01-30T20:21:43.887Z,98571.31
2023-01-30T20:24:13.629Z,98573.75
2023-01-30T20:26:41.899Z,98578.34
2023-01-30T20:29:10.948Z,98570.16
2023-01-30T20:31:39.634Z,98570.84
2023-01-30T20:34:11.807Z,98576.59
2023-01-30T20:36:39.326Z,98576.22
2023-01-30T20:39:07.888Z,98575.78
2023-01-30T20:41:36.593Z,98574.69
2023-01-30T20:44:06.799Z,98578.56
2023-01-30T20:46:43.869Z,98571.19
2023-01-30T20:49:18.614Z,98577.41
2023-01-30T20:51:48.868Z,98574.25
2023-01-30T20:54:19.333Z,98576.81
2023-01-30T20:56:50.821Z,98573.44
2023-01-30T20:59:24.168Z,98576.81
2023-01-30T21:01:52.867Z,98580.22
2023-01-30T21:04:21.911Z,98568.16
2023-01-30T21:06:49.207Z,98578.59
2023-01-30T21:09:22.787Z,98587.38
2023-01-30T21:11:53.026Z,98599.50
2023-01-30T21:14:21.062Z,98592.72
2023-01-30T21:16:50.142Z,98589.34
2023-01-30T21:19:18.275Z,98582.31
2023-01-30T21:21:53.969Z,98599.63
2023-01-30T21:24:26.708Z,98607.34
2023-01-30T21:26:55.878Z,98621.81
2023-01-30T21:29:26.031Z,98639.81
2023-01-30T21:31:55.659Z,98645.66
2023-01-30T21:34:23.636Z,98665.31
2023-01-30T21:37:09.441Z,98677.81
2023-01-30T21:39:55.269Z,98688.34
2023-01-30T21:42:41.325Z,98708.94
2023-01-30T21:45:08.964Z,98726.25
2023-01-30T21:47:36.995Z,98738.19
2023-01-30T21:50:05.191Z,98738.75
2023-01-30T21:52:33.352Z,98744.94
2023-01-30T21:55:00.856Z,98744.81
2023-01-30T21:57:28.273Z,98752.31
2023-01-30T21:59:55.721Z,98766.81
2023-01-30T22:02:23.183Z,98770.22
2023-01-30T22:04:50.525Z,98776.53
2023-01-30T22:07:17.936Z,98775.72
2023-01-30T22:09:45.283Z,98783.69
2023-01-30T22:12:12.578Z,98798.66
2023-01-30T22:14:40.102Z,98797.50
2023-01-30T22:17:07.458Z,98797.50
2023-01-30T22:19:38.414Z,98799.34
2023-01-30T22:22:06.169Z,98805.56
2023-01-30T22:24:33.560Z,98809.44
2023-01-30T22:27:00.910Z,98807.66
2023-01-30T22:29:29.213Z,98819.38
2023-01-30T22:31:56.719Z,98813.41
2023-01-30T22:34:24.107Z,98814.31
2023-01-30T22:36:51.836Z,98814.91
2023-01-30T22:39:20.004Z,98811.41
2023-01-30T22:41:47.337Z,98802.25
2023-01-30T22:44:14.709Z,98805.44
2023-01-30T22:46:42.299Z,98810.59
2023-01-30T22:49:10.643Z,98812.22
2023-01-30T22:51:41.050Z,98811.88
2023-01-30T22:54:15.926Z,98809.66
2023-01-30T22:56:48.641Z,98814.13
2023-01-30T22:59:16.246Z,98816.69
2023-01-30T23:01:50.773Z,98822.41
2023-01-30T23:04:22.391Z,98827.19
2023-01-30T23:06:51.897Z,98828.13
2023-01-30T23:09:23.250Z,98823.78
2023-01-30T23:12:13.831Z,98812.34
2023-01-30T23:14:42.806Z,98811.16
2023-01-30T23:17:29.375Z,98811.25
2023-01-30T23:19:57.063Z,98819.91
2023-01-30T23:22:24.606Z,98810.78
2023-01-30T23:24:52.625Z,98806.00
2023-01-30T23:27:21.274Z,98817.09
2023-01-30T23:29:48.691Z,98806.09
2023-01-30T23:32:19.846Z,98813.72
2023-01-30T23:34:48.390Z,98808.66
2023-01-30T23:37:16.874Z,98805.06
2023-01-30T23:39:45.242Z,98800.13
2023-01-30T23:42:12.615Z,98795.09
2023-01-30T23:44:40.214Z,98781.31
2023-01-30T23:47:07.644Z,98777.78
2023-01-30T23:49:35.429Z,98772.44
2023-01-30T23:52:02.766Z,98767.28
2023-01-30T23:54:30.176Z,98773.94
2023-01-30T23:56:57.580Z,98761.06
2023-01-30T23:59:24.903Z,98761.56
